CDT,Max TemperatureF,Mean TemperatureF,Min TemperatureF,Max Dew PointF,MeanDew PointF,Min DewpointF,Max Humidity, Mean Humidity, Min Humidity, Max Sea Level PressureIn, Mean Sea Level PressureIn, Min Sea Level PressureIn, Max VisibilityMiles, Mean VisibilityMiles, Min VisibilityMiles, Max Wind SpeedMPH, Mean Wind SpeedMPH, Max Gust SpeedMPH,PrecipitationIn, CloudCover, Events, WindDirDegrees
2012-8-1,94,80,66,64,60,56,87,58,28,29.96,29.92,29.85,10,10,10,7,2,12,0.00,0,,124
2012-8-2,96,82,67,69,62,58,87,59,30,29.87,29.82,29.75,10,10,10,15,4,18,0.00,0,,140
2012-8-3,94,82,69,70,68,65,97,68,39,29.89,29.84,29.81,10,9,5,12,4,23,0.00,1,,130
2012-8-4,94,83,71,75,71,67,93,73,52,29.94,29.86,29.81,10,7,0,25,7,37,0.62,3,Fog-Rain-Thunderstorm,255
2012-8-5,86,76,65,70,61,56,93,65,37,30.16,30.06,29.92,10,10,7,14,5,22,0.00,1,Thunderstorm,319
2012-8-6,87,73,58,58,55,48,90,59,27,30.17,30.10,30.01,10,10,10,10,2,16,0.00,0,,311
2012-8-7,97,80,62,66,59,57,84,56,27,30.01,29.96,29.91,10,10,10,13,3,16,0.00,1,,247
2012-8-8,81,75,69,71,67,63,90,74,58,30.02,29.95,29.89,10,9,2,9,3,14,0.13,3,Rain,28
2012-8-9,86,74,62,68,65,60,93,74,55,29.94,29.86,29.79,10,9,6,17,5,24,0.00,3,,52
2012-8-10,79,68,57,61,56,50,97,67,37,30.00,29.94,29.86,10,10,10,16,7,24,0.00,4,,2
2012-8-11,81,68,54,53,49,43,86,56,26,30.05,30.01,29.98,10,10,10,12,3,18,0.00,0,,339
2012-8-12,79,67,55,62,54,51,93,68,42,30.04,29.99,29.93,10,10,5,10,3,13,0.12,5,Rain,137
2012-8-13,73,66,59,62,61,59,97,83,68,29.99,29.93,29.90,10,10,3,13,6,17,0.10,7,Rain,60
2012-8-14,84,70,56,61,57,53,100,69,37,29.99,29.95,29.91,10,6,0,12,2,15,0.00,1,Fog,301
2012-8-15,88,74,60,59,57,53,90,61,31,29.98,29.93,29.86,10,10,10,23,8,28,T,0,,205
2012-8-16,76,68,60,69,63,55,93,77,61,29.99,29.88,29.78,10,7,1,33,6,47,1.02,5,Rain-Thunderstorm,243
2012-8-17,76,66,55,54,51,47,93,65,36,30.06,30.02,29.99,10,10,10,10,4,17,0.00,0,,337
2012-8-18,79,66,52,54,50,45,93,62,31,30.04,29.99,29.93,10,10,10,10,2,14,0.00,0,,281
2012-8-19,80,69,58,56,51,44,80,55,30,29.98,29.95,29.92,10,10,10,12,3,17,0.00,2,,345
2012-8-20,81,68,55,55,53,48,93,63,33,30.00,29.97,29.94,10,10,10,10,3,15,0.00,1,,327
2012-8-21,82,68,54,56,50,42,93,60,26,30.08,30.05,30.00,10,10,9,10,2,15,0.00,0,,40
2012-8-22,88,72,55,56,52,49,86,56,26,30.11,30.06,30.01,10,10,10,10,4,13,0.00,0,,146
2012-8-23,95,80,64,59,55,50,63,45,26,30.07,30.02,29.97,10,10,10,15,7,22,0.00,1,,176
2012-8-24,93,80,67,63,57,53,68,48,28,30.04,29.99,29.93,10,10,10,12,3,17,0.00,0,,175
2012-8-25,93,78,63,66,58,54,78,54,30,30.04,29.99,29.94,10,10,10,22,9,28,0.00,1,,169
2012-8-26,77,73,69,73,70,64,100,82,64,30.04,29.99,29.95,10,6,1,15,5,20,1.54,8,Rain,159
2012-8-27,88,77,66,70,65,55,100,67,34,30.11,30.05,29.98,10,9,4,13,4,20,0.00,4,,355
2012-8-28,89,76,63,65,62,58,93,65,36,30.14,30.07,30.01,10,10,7,9,2,13,0.00,0,,53
2012-8-29,87,76,65,65,63,61,87,66,45,30.09,30.03,29.97,10,10,10,10,4,13,0.00,0,,126
2012-8-30,92,80,67,64,61,58,81,58,34,30.04,29.99,29.94,10,10,10,12,6,16,0.00,0,,177
2012-8-31,84,77,69,74,68,58,94,78,61,30.08,30.02,29.99,10,9,6,14,6,17,0.23,1,Rain,157